St. Stephen, Canada
Current Conditions -  °F | °C
As of 8:00 PM on Friday 21 Nov 2014 (Local Time) from CYFC Reporting Station
Clear Clear  
Wind Chill: 12°   Ceiling: Unl
Heat Index: 23°   Visibility: 9mi
Dew Point: 10°   Wind: 10mph
Humidity: 59%   Direction: 290°WNW
Pressure: 30.06"   Gusts: 21mph
Location:  45.19°N, 67.28°W
Report Text: CYFC 220000Z AUTO 29009G18KT 250V320 9SM CLR M05/M12 A3006 RMK SLP182
Loading
Personal Weather Stations






























Interactive Weather Map New forecast layout! Learn more

10-Day Weather Forecast

Advertisements
Track Severe Weather on mobile